sensor_id;sensor_type;location;lat;lon;timestamp;pressure;altitude;pressure_sealevel;temperature;humidity
47054;BME280;32811;52.382;5.270;2022-12-26T00:01:59;100945.00;;;7.34;100.00
47054;BME280;32811;52.382;5.270;2022-12-26T00:04:33;100897.41;;;7.07;100.00
47054;BME280;32811;52.382;5.270;2022-12-26T00:07:18;100916.50;;;7.20;100.00
47054;BME280;32811;52.382;5.270;2022-12-26T00:09:49;100888.00;;;7.06;100.00
47054;BME280;32811;52.382;5.270;2022-12-26T00:12:35;100919.03;;;7.18;100.00
47054;BME280;32811;52.382;5.270;2022-12-26T00:15:07;100899.13;;;7.06;100.00
47054;BME280;32811;52.382;5.270;2022-12-26T00:17:37;100996.09;;;7.65;100.00
47054;BME280;32811;52.382;5.270;2022-12-26T00:20:08;100996.09;;;7.65;100.00
47054;BME280;32811;52.382;5.270;2022-12-26T00:22:34;100942.44;;;7.34;100.00
47054;BME280;32811;52.382;5.270;2022-12-26T00:25:01;100925.16;;;7.25;100.00
47054;BME280;32811;52.382;5.270;2022-12-26T00:27:31;100987.50;;;7.62;100.00
47054;BME280;32811;52.382;5.270;2022-12-26T00:29:58;100914.75;;;7.17;100.00
47054;BME280;32811;52.382;5.270;2022-12-26T00:32:25;100987.41;;;7.59;100.00
47054;BME280;32811;52.382;5.270;2022-12-26T00:34:53;100905.97;;;7.07;100.00
47054;BME280;32811;52.382;5.270;2022-12-26T00:37:20;100898.22;;;7.04;100.00
47054;BME280;32811;52.382;5.270;2022-12-26T00:39:49;100995.16;;;7.60;100.00
47054;BME280;32811;52.382;5.270;2022-12-26T00:42:17;100938.78;;;7.22;100.00
47054;BME280;32811;52.382;5.270;2022-12-26T00:44:46;100958.72;;;7.36;100.00
47054;BME280;32811;52.382;5.270;2022-12-26T00:47:19;101007.09;;;7.58;100.00
47054;BME280;32811;52.382;5.270;2022-12-26T00:49:52;100927.31;;;7.05;100.00
47054;BME280;32811;52.382;5.270;2022-12-26T00:52:39;101020.97;;;7.66;100.00
47054;BME280;32811;52.382;5.270;2022-12-26T00:55:09;100971.53;;;7.34;100.00
47054;BME280;32811;52.382;5.270;2022-12-26T00:57:38;100899.00;;;6.99;100.00
47054;BME280;32811;52.382;5.270;2022-12-26T01:00:05;100935.44;;;7.26;100.00
47054;BME280;32811;52.382;5.270;2022-12-26T01:02:34;100899.94;;;7.04;100.00
47054;BME280;32811;52.382;5.270;2022-12-26T01:05:11;100902.41;;;7.01;100.00
47054;BME280;32811;52.382;5.270;2022-12-26T01:07:39;101012.34;;;7.63;100.00
47054;BME280;32811;52.382;5.270;2022-12-26T01:10:29;100935.19;;;7.14;100.00
47054;BME280;32811;52.382;5.270;2022-12-26T01:12:58;100961.25;;;7.34;100.00
47054;BME280;32811;52.382;5.270;2022-12-26T01:15:26;100951.63;;;7.22;100.00
47054;BME280;32811;52.382;5.270;2022-12-26T01:17:53;100958.66;;;7.31;100.00
47054;BME280;32811;52.382;5.270;2022-12-26T01:20:23;100923.09;;;7.07;100.00
47054;BME280;32811;52.382;5.270;2022-12-26T01:22:54;100943.97;;;7.25;100.00
47054;BME280;32811;52.382;5.270;2022-12-26T01:25:22;100976.84;;;7.42;100.00
47054;BME280;32811;52.382;5.270;2022-12-26T01:27:52;100955.34;;;7.37;100.00
47054;BME280;32811;52.382;5.270;2022-12-26T01:30:21;100934.59;;;7.26;100.00
47054;BME280;32811;52.382;5.270;2022-12-26T01:32:48;100930.16;;;7.19;100.00
47054;BME280;32811;52.382;5.270;2022-12-26T01:35:15;100938.03;;;7.26;100.00
47054;BME280;32811;52.382;5.270;2022-12-26T01:37:45;100949.31;;;7.36;100.00
47054;BME280;32811;52.382;5.270;2022-12-26T01:40:17;100936.22;;;7.22;100.00
47054;BME280;32811;52.382;5.270;2022-12-26T01:42:47;100957.03;;;7.35;100.00
47054;BME280;32811;52.382;5.270;2022-12-26T01:45:34;101003.63;;;7.55;100.00
47054;BME280;32811;52.382;5.270;2022-12-26T01:48:13;101026.84;;;7.61;100.00
47054;BME280;32811;52.382;5.270;2022-12-26T01:50:49;101011.44;;;7.61;100.00
47054;BME280;32811;52.382;5.270;2022-12-26T01:53:26;101020.03;;;7.61;100.00
47054;BME280;32811;52.382;5.270;2022-12-26T01:56:09;100942.03;;;7.14;100.00
47054;BME280;32811;52.382;5.270;2022-12-26T01:58:43;100921.28;;;7.03;100.00
47054;BME280;32811;52.382;5.270;2022-12-26T02:01:13;101011.38;;;7.58;100.00
47054;BME280;32811;52.382;5.270;2022-12-26T02:03:44;100908.28;;;6.94;100.00
47054;BME280;32811;52.382;5.270;2022-12-26T02:06:33;101009.63;;;7.55;100.00
47054;BME280;32811;52.382;5.270;2022-12-26T02:09:11;100975.94;;;7.40;100.00
47054;BME280;32811;52.382;5.270;2022-12-26T02:11:44;100937.00;;;7.17;100.00
47054;BME280;32811;52.382;5.270;2022-12-26T02:14:37;100942.97;;;7.17;100.00
47054;BME280;32811;52.382;5.270;2022-12-26T02:17:10;100984.53;;;7.42;100.00
47054;BME280;32811;52.382;5.270;2022-12-26T02:45:26;100985.63;;;7.53;100.00
47054;BME280;32811;52.382;5.270;2022-12-26T02:54:38;100979.50;;;7.46;100.00
47054;BME280;32811;52.382;5.270;2022-12-26T02:57:31;100982.09;;;7.48;100.00
47054;BME280;32811;52.382;5.270;2022-12-26T03:00:31;100983.84;;;7.51;100.00
47054;BME280;32811;52.382;5.270;2022-12-26T03:03:25;100968.28;;;7.41;100.00
47054;BME280;32811;52.382;5.270;2022-12-26T03:06:16;100975.19;;;7.45;100.00
47054;BME280;32811;52.382;5.270;2022-12-26T03:09:14;100965.66;;;7.40;100.00
47054;BME280;32811;52.382;5.270;2022-12-26T03:12:06;100966.47;;;7.37;100.00
47054;BME280;32811;52.382;5.270;2022-12-26T03:14:57;100975.16;;;7.44;100.00
47054;BME280;32811;52.382;5.270;2022-12-26T03:20:09;100981.03;;;7.37;100.00
47054;BME280;32811;52.382;5.270;2022-12-26T03:22:51;100980.09;;;7.33;100.00
47054;BME280;32811;52.382;5.270;2022-12-26T03:28:14;100984.09;;;7.20;100.00
47054;BME280;32811;52.382;5.270;2022-12-26T03:30:41;100975.44;;;7.15;100.00
47054;BME280;32811;52.382;5.270;2022-12-26T03:33:24;100971.13;;;7.14;100.00
47054;BME280;32811;52.382;5.270;2022-12-26T03:44:31;100947.81;;;7.02;100.00
47054;BME280;32811;52.382;5.270;2022-12-26T03:48:34;100987.53;;;7.21;100.00
47054;BME280;32811;52.382;5.270;2022-12-26T03:51:07;100971.88;;;7.09;100.00
47054;BME280;32811;52.382;5.270;2022-12-26T03:54:21;100976.16;;;7.08;100.00
47054;BME280;32811;52.382;5.270;2022-12-26T03:57:13;100975.31;;;7.09;100.00
47054;BME280;32811;52.382;5.270;2022-12-26T04:00:07;100976.34;;;7.17;100.00
47054;BME280;32811;52.382;5.270;2022-12-26T04:02:58;100967.47;;;7.03;100.00
47054;BME280;32811;52.382;5.270;2022-12-26T04:05:46;100971.78;;;7.04;100.00
47054;BME280;32811;52.382;5.270;2022-12-26T04:08:44;100970.91;;;7.02;100.00
47054;BME280;32811;52.382;5.270;2022-12-26T04:11:33;100972.56;;;7.00;100.00
47054;BME280;32811;52.382;5.270;2022-12-26T04:14:44;100967.25;;;6.91;100.00
47054;BME280;32811;52.382;5.270;2022-12-26T04:17:49;100970.75;;;6.96;100.00
47054;BME280;32811;52.382;5.270;2022-12-26T04:23:35;100957.13;;;6.97;100.00
47054;BME280;32811;52.382;5.270;2022-12-26T04:26:43;100971.03;;;7.08;100.00
47054;BME280;32811;52.382;5.270;2022-12-26T04:29:29;100963.09;;;6.97;100.00
47054;BME280;32811;52.382;5.270;2022-12-26T04:32:46;100957.13;;;6.98;100.00
47054;BME280;32811;52.382;5.270;2022-12-26T04:38:29;100982.97;;;7.06;100.00
47054;BME280;32811;52.382;5.270;2022-12-26T04:41:19;100990.72;;;7.09;100.00
47054;BME280;32811;52.382;5.270;2022-12-26T04:44:05;100986.53;;;7.14;100.00
47054;BME280;32811;52.382;5.270;2022-12-26T04:46:38;100997.59;;;7.10;100.00
47054;BME280;32811;52.382;5.270;2022-12-26T04:49:08;100970.72;;;6.94;100.00
47054;BME280;32811;52.382;5.270;2022-12-26T04:51:57;100987.25;;;7.05;100.00
47054;BME280;32811;52.382;5.270;2022-12-26T04:54:25;100975.16;;;7.01;100.00
47054;BME280;32811;52.382;5.270;2022-12-26T04:56:52;100987.88;;;6.95;100.00
47054;BME280;32811;52.382;5.270;2022-12-26T04:59:20;100975.84;;;6.93;100.00
47054;BME280;32811;52.382;5.270;2022-12-26T05:01:47;100960.22;;;6.82;100.00
47054;BME280;32811;52.382;5.270;2022-12-26T05:04:33;100969.81;;;6.91;100.00
47054;BME280;32811;52.382;5.270;2022-12-26T05:07:24;100970.66;;;6.91;100.00
47054;BME280;32811;52.382;5.270;2022-12-26T05:10:16;100963.78;;;6.89;100.00
47054;BME280;32811;52.382;5.270;2022-12-26T05:12:43;100953.38;;;6.82;100.00
47054;BME280;32811;52.382;5.270;2022-12-26T05:15:11;100967.16;;;6.88;100.00
47054;BME280;32811;52.382;5.270;2022-12-26T05:17:38;100973.13;;;6.86;100.00
47054;BME280;32811;52.382;5.270;2022-12-26T05:20:23;100946.25;;;6.69;100.00
47054;BME280;32811;52.382;5.270;2022-12-26T05:23:17;100962.69;;;6.77;100.00
47054;BME280;32811;52.382;5.270;2022-12-26T05:26:03;100964.38;;;6.77;100.00
47054;BME280;32811;52.382;5.270;2022-12-26T05:28:55;100963.38;;;6.72;100.00
47054;BME280;32811;52.382;5.270;2022-12-26T05:31:22;100982.28;;;6.75;100.00
47054;BME280;32811;52.382;5.270;2022-12-26T05:33:55;100996.88;;;6.78;100.00
47054;BME280;32811;52.382;5.270;2022-12-26T05:36:44;100949.25;;;6.51;100.00
47054;BME280;32811;52.382;5.270;2022-12-26T05:39:13;100974.31;;;6.63;100.00
47054;BME280;32811;52.382;5.270;2022-12-26T05:41:41;100977.88;;;6.70;100.00
47054;BME280;32811;52.382;5.270;2022-12-26T05:44:09;100989.03;;;6.72;100.00
47054;BME280;32811;52.382;5.270;2022-12-26T05:46:36;100976.91;;;6.64;100.00
47054;BME280;32811;52.382;5.270;2022-12-26T05:49:04;100965.66;;;6.58;100.00
47054;BME280;32811;52.382;5.270;2022-12-26T05:51:31;100988.94;;;6.67;100.00
47054;BME280;32811;52.382;5.270;2022-12-26T05:53:58;100985.47;;;6.65;100.00
47054;BME280;32811;52.382;5.270;2022-12-26T05:56:24;100973.34;;;6.58;100.00
47054;BME280;32811;52.382;5.270;2022-12-26T05:58:56;100943.97;;;6.43;100.00
47054;BME280;32811;52.382;5.270;2022-12-26T06:01:23;100974.22;;;6.58;100.00
47054;BME280;32811;52.382;5.270;2022-12-26T06:03:53;100975.09;;;6.59;100.00
47054;BME280;32811;52.382;5.270;2022-12-26T06:06:22;100984.69;;;6.68;100.00
47054;BME280;32811;52.382;5.270;2022-12-26T06:08:50;100993.16;;;6.65;100.00
47054;BME280;32811;52.382;5.270;2022-12-26T06:11:18;100980.25;;;6.60;100.00
47054;BME280;32811;52.382;5.270;2022-12-26T06:13:45;100987.97;;;6.62;100.00
47054;BME280;32811;52.382;5.270;2022-12-26T06:16:14;100946.63;;;6.48;100.00
47054;BME280;32811;52.382;5.270;2022-12-26T06:18:42;100982.09;;;6.66;100.00
47054;BME280;32811;52.382;5.270;2022-12-26T06:21:15;100968.31;;;6.61;100.00
47054;BME280;32811;52.382;5.270;2022-12-26T06:23:42;100968.13;;;6.53;100.00
47054;BME280;32811;52.382;5.270;2022-12-26T06:26:09;100964.75;;;6.54;100.00
47054;BME280;32811;52.382;5.270;2022-12-26T06:28:39;100958.66;;;6.51;100.00
47054;BME280;32811;52.382;5.270;2022-12-26T06:31:12;100975.97;;;6.59;100.00
47054;BME280;32811;52.382;5.270;2022-12-26T06:33:40;100973.34;;;6.58;100.00
47054;BME280;32811;52.382;5.270;2022-12-26T06:36:10;100964.78;;;6.57;100.00
47054;BME280;32811;52.382;5.270;2022-12-26T06:38:38;100956.66;;;6.37;100.00
47054;BME280;32811;52.382;5.270;2022-12-26T06:41:06;100983.84;;;6.69;100.00
47054;BME280;32811;52.382;5.270;2022-12-26T06:43:33;100990.53;;;6.62;100.00
47054;BME280;32811;52.382;5.270;2022-12-26T06:46:02;100976.00;;;6.61;100.00
47054;BME280;32811;52.382;5.270;2022-12-26T06:48:30;100968.38;;;6.64;100.00
47054;BME280;32811;52.382;5.270;2022-12-26T06:50:57;100955.41;;;6.58;100.00
47054;BME280;32811;52.382;5.270;2022-12-26T06:53:24;100969.41;;;6.74;100.00
47054;BME280;32811;52.382;5.270;2022-12-26T06:55:51;100946.91;;;6.60;100.00
47054;BME280;32811;52.382;5.270;2022-12-26T06:58:18;100940.09;;;6.61;100.00
47054;BME280;32811;52.382;5.270;2022-12-26T07:00:45;100963.38;;;6.70;100.00
47054;BME280;32811;52.382;5.270;2022-12-26T07:03:11;100955.53;;;6.64;100.00
47054;BME280;32811;52.382;5.270;2022-12-26T07:05:38;100959.16;;;6.74;100.00
47054;BME280;32811;52.382;5.270;2022-12-26T07:08:06;100956.88;;;6.86;100.00
47054;BME280;32811;52.382;5.270;2022-12-26T07:10:36;100926.63;;;6.71;100.00
47054;BME280;32811;52.382;5.270;2022-12-26T07:13:03;100924.16;;;6.74;100.00
47054;BME280;32811;52.382;5.270;2022-12-26T07:15:30;100949.28;;;6.91;100.00
47054;BME280;32811;52.382;5.270;2022-12-26T07:17:57;100880.78;;;6.46;100.00
47054;BME280;32811;52.382;5.270;2022-12-26T07:20:24;100937.78;;;6.73;100.00
47054;BME280;32811;52.382;5.270;2022-12-26T07:22:53;100951.66;;;6.83;100.00
47054;BME280;32811;52.382;5.270;2022-12-26T07:25:20;100961.16;;;6.87;100.00
47054;BME280;32811;52.382;5.270;2022-12-26T07:27:47;100955.13;;;6.83;100.00
47054;BME280;32811;52.382;5.270;2022-12-26T07:30:14;100949.09;;;6.81;100.00
47054;BME280;32811;52.382;5.270;2022-12-26T07:32:40;100951.56;;;6.78;100.00
47054;BME280;32811;52.382;5.270;2022-12-26T07:35:07;100937.94;;;6.79;100.00
47054;BME280;32811;52.382;5.270;2022-12-26T07:37:35;100931.84;;;6.74;100.00
47054;BME280;32811;52.382;5.270;2022-12-26T07:40:02;100956.06;;;6.89;100.00
47054;BME280;32811;52.382;5.270;2022-12-26T07:42:29;100956.88;;;6.88;100.00
47054;BME280;32811;52.382;5.270;2022-12-26T07:44:55;100958.63;;;6.89;100.00
47054;BME280;32811;52.382;5.270;2022-12-26T07:47:22;100952.78;;;6.96;100.00
47054;BME280;32811;52.382;5.270;2022-12-26T07:49:49;100936.41;;;6.89;100.00
47054;BME280;32811;52.382;5.270;2022-12-26T07:52:16;100960.41;;;6.91;100.00
47054;BME280;32811;52.382;5.270;2022-12-26T07:54:43;100932.13;;;6.88;100.00
47054;BME280;32811;52.382;5.270;2022-12-26T07:57:10;100943.34;;;6.93;100.00
47054;BME280;32811;52.382;5.270;2022-12-26T07:59:57;100876.09;;;6.67;100.00
47054;BME280;32811;52.382;5.270;2022-12-26T08:02:24;100947.84;;;7.05;100.00
47054;BME280;32811;52.382;5.270;2022-12-26T08:04:51;100950.56;;;7.11;100.00
47054;BME280;32811;52.382;5.270;2022-12-26T08:07:18;100957.44;;;7.14;100.00
47054;BME280;32811;52.382;5.270;2022-12-26T08:09:45;100961.72;;;7.13;100.00
47054;BME280;32811;52.382;5.270;2022-12-26T08:12:12;100954.84;;;7.12;100.00
47054;BME280;32811;52.382;5.270;2022-12-26T08:14:40;100936.69;;;7.01;100.00
47054;BME280;32811;52.382;5.270;2022-12-26T08:17:07;100973.13;;;7.27;100.00
47054;BME280;32811;52.382;5.270;2022-12-26T08:19:34;100953.16;;;7.13;100.00
47054;BME280;32811;52.382;5.270;2022-12-26T08:22:01;100971.22;;;7.17;100.00
47054;BME280;32811;52.382;5.270;2022-12-26T08:24:28;100968.78;;;7.23;100.00
47054;BME280;32811;52.382;5.270;2022-12-26T08:26:55;100987.75;;;7.30;100.00
47054;BME280;32811;52.382;5.270;2022-12-26T08:29:22;100998.91;;;7.34;100.00
47054;BME280;32811;52.382;5.270;2022-12-26T08:31:49;101005.81;;;7.36;100.00
47054;BME280;32811;52.382;5.270;2022-12-26T08:34:16;101014.28;;;7.32;100.00
47054;BME280;32811;52.382;5.270;2022-12-26T08:36:42;101028.97;;;7.38;100.00
47054;BME280;32811;52.382;5.270;2022-12-26T08:39:09;101026.50;;;7.42;100.00
47054;BME280;32811;52.382;5.270;2022-12-26T08:41:36;101007.38;;;7.30;100.00
47054;BME280;32811;52.382;5.270;2022-12-26T08:44:04;101032.56;;;7.46;100.00
47054;BME280;32811;52.382;5.270;2022-12-26T08:46:51;101036.00;;;7.46;100.00
47054;BME280;32811;52.382;5.270;2022-12-26T08:49:18;101023.09;;;7.45;100.00
47054;BME280;32811;52.382;5.270;2022-12-26T08:51:45;101017.84;;;7.37;100.00
47054;BME280;32811;52.382;5.270;2022-12-26T08:54:12;101002.03;;;7.17;100.00
47054;BME280;32811;52.382;5.270;2022-12-26T08:56:39;101046.31;;;7.49;100.00
47054;BME280;32811;52.382;5.270;2022-12-26T08:59:06;101034.19;;;7.42;100.00
47054;BME280;32811;52.382;5.270;2022-12-26T09:01:33;101034.22;;;7.44;100.00
47054;BME280;32811;52.382;5.270;2022-12-26T09:04:02;101067.09;;;7.60;100.00
47054;BME280;32811;52.382;5.270;2022-12-26T09:06:34;101072.19;;;7.57;100.00
47054;BME280;32811;52.382;5.270;2022-12-26T09:09:02;101073.97;;;7.63;100.00
47054;BME280;32811;52.382;5.270;2022-12-26T09:11:31;101077.50;;;7.66;100.00
47054;BME280;32811;52.382;5.270;2022-12-26T09:13:59;101077.13;;;7.48;100.00
47054;BME280;32811;52.382;5.270;2022-12-26T09:16:32;101116.69;;;7.58;100.00
47054;BME280;32811;52.382;5.270;2022-12-26T09:19:06;101140.19;;;7.35;100.00
47054;BME280;32811;52.382;5.270;2022-12-26T09:21:34;101150.88;;;7.16;100.00
47054;BME280;32811;52.382;5.270;2022-12-26T09:24:04;101166.25;;;6.79;100.00
47054;BME280;32811;52.382;5.270;2022-12-26T09:26:32;101178.63;;;6.61;100.00
47054;BME280;32811;52.382;5.270;2022-12-26T09:28:58;101161.38;;;6.23;100.00
47054;BME280;32811;52.382;5.270;2022-12-26T09:31:28;101202.50;;;6.28;100.00
47054;BME280;32811;52.382;5.270;2022-12-26T09:33:55;101216.66;;;6.15;100.00
47054;BME280;32811;52.382;5.270;2022-12-26T09:36:28;101226.13;;;6.18;100.00
47054;BME280;32811;52.382;5.270;2022-12-26T09:38:56;101238.69;;;6.09;100.00
47054;BME280;32811;52.382;5.270;2022-12-26T09:41:45;101260.75;;;6.03;100.00
47054;BME280;32811;52.382;5.270;2022-12-26T09:44:41;101238.94;;;5.89;100.00
47054;BME280;32811;52.382;5.270;2022-12-26T09:55:02;101265.19;;;5.82;100.00
47054;BME280;32811;52.382;5.270;2022-12-26T09:57:45;101254.94;;;5.82;100.00
47054;BME280;32811;52.382;5.270;2022-12-26T10:00:23;101266.38;;;5.93;100.00
47054;BME280;32811;52.382;5.270;2022-12-26T10:02:53;101260.19;;;5.85;100.00
47054;BME280;32811;52.382;5.270;2022-12-26T10:05:25;101260.06;;;5.82;100.00
47054;BME280;32811;52.382;5.270;2022-12-26T10:07:59;101269.69;;;5.89;100.00
47054;BME280;32811;52.382;5.270;2022-12-26T10:10:43;101279.84;;;5.86;100.00
47054;BME280;32811;52.382;5.270;2022-12-26T10:14:15;101288.66;;;5.94;100.00
47054;BME280;32811;52.382;5.270;2022-12-26T10:24:58;101279.00;;;5.87;100.00
47054;BME280;32811;52.382;5.270;2022-12-26T10:27:28;101276.28;;;5.81;100.00
47054;BME280;32811;52.382;5.270;2022-12-26T10:30:04;101297.28;;;5.96;100.00
47054;BME280;32811;52.382;5.270;2022-12-26T10:32:45;101306.88;;;6.03;100.00
47054;BME280;32811;52.382;5.270;2022-12-26T10:37:50;101313.66;;;6.01;100.00
47054;BME280;32811;52.382;5.270;2022-12-26T10:40:38;101316.63;;;5.88;100.00
47054;BME280;32811;52.382;5.270;2022-12-26T10:43:29;101323.38;;;6.12;100.00
47054;BME280;32811;52.382;5.270;2022-12-26T10:48:57;101328.44;;;6.10;100.00
47054;BME280;32811;52.382;5.270;2022-12-26T10:51:25;101314.44;;;5.99;100.00
47054;BME280;32811;52.382;5.270;2022-12-26T10:53:53;101348.03;;;6.08;100.00
47054;BME280;32811;52.382;5.270;2022-12-26T10:56:21;101344.47;;;6.03;100.00
47054;BME280;32811;52.382;5.270;2022-12-26T10:58:59;101352.38;;;6.11;100.00
47054;BME280;32811;52.382;5.270;2022-12-26T11:04:00;101316.28;;;5.77;100.00
47054;BME280;32811;52.382;5.270;2022-12-26T11:06:31;101356.69;;;6.12;100.00
47054;BME280;32811;52.382;5.270;2022-12-26T11:08:59;101374.00;;;6.20;100.00
47054;BME280;32811;52.382;5.270;2022-12-26T11:11:31;101347.69;;;5.97;100.00
47054;BME280;32811;52.382;5.270;2022-12-26T11:17:03;101381.56;;;6.16;100.00
47054;BME280;32811;52.382;5.270;2022-12-26T11:19:42;101384.97;;;6.15;100.00
47054;BME280;32811;52.382;5.270;2022-12-26T11:24:41;101379.34;;;5.99;100.00
47054;BME280;32811;52.382;5.270;2022-12-26T11:27:17;101387.88;;;5.98;100.00
47054;BME280;32811;52.382;5.270;2022-12-26T11:29:44;101319.91;;;5.57;100.00
47054;BME280;32811;52.382;5.270;2022-12-26T11:32:18;101404.75;;;6.19;100.00
47054;BME280;32811;52.382;5.270;2022-12-26T11:34:46;101414.59;;;6.34;100.00
47054;BME280;32811;52.382;5.270;2022-12-26T11:37:40;101400.69;;;6.54;100.00
47054;BME280;32811;52.382;5.270;2022-12-26T11:40:16;101405.78;;;6.53;100.00
47054;BME280;32811;52.382;5.270;2022-12-26T11:42:49;101404.13;;;6.55;100.00
47054;BME280;32811;52.382;5.270;2022-12-26T11:45:27;101418.28;;;6.71;100.00
47054;BME280;32811;52.382;5.270;2022-12-26T11:48:01;101431.41;;;6.81;100.00
47054;BME280;32811;52.382;5.270;2022-12-26T11:50:29;101404.66;;;6.73;100.00
47054;BME280;32811;52.382;5.270;2022-12-26T11:58:12;101420.47;;;6.58;100.00
47054;BME280;32811;52.382;5.270;2022-12-26T12:03:31;101427.41;;;6.34;100.00
47054;BME280;32811;52.382;5.270;2022-12-26T12:06:13;101408.75;;;6.11;100.00
47054;BME280;32811;52.382;5.270;2022-12-26T12:08:44;101434.44;;;6.12;100.00
47054;BME280;32811;52.382;5.270;2022-12-26T12:19:38;101435.59;;;6.22;100.00
47054;BME280;32811;52.382;5.270;2022-12-26T12:27:56;101444.53;;;6.35;100.00
47054;BME280;32811;52.382;5.270;2022-12-26T12:30:40;101457.78;;;6.49;100.00
47054;BME280;32811;52.382;5.270;2022-12-26T12:44:59;101465.75;;;6.03;100.00
47054;BME280;32811;52.382;5.270;2022-12-26T12:47:45;101444.25;;;5.98;100.00
47054;BME280;32811;52.382;5.270;2022-12-26T12:50:28;101448.91;;;5.86;100.00
47054;BME280;32811;52.382;5.270;2022-12-26T12:53:08;101487.41;;;5.88;100.00
47054;BME280;32811;52.382;5.270;2022-12-26T12:58:34;101492.97;;;5.76;100.00
47054;BME280;32811;52.382;5.270;2022-12-26T13:01:21;101472.38;;;5.73;100.00
47054;BME280;32811;52.382;5.270;2022-12-26T13:04:15;101489.13;;;5.89;100.00
47054;BME280;32811;52.382;5.270;2022-12-26T13:06:53;101480.97;;;5.75;100.00
47054;BME280;32811;52.382;5.270;2022-12-26T13:09:24;101493.19;;;5.82;100.00
47054;BME280;32811;52.382;5.270;2022-12-26T13:11:59;101498.84;;;5.73;100.00
47054;BME280;32811;52.382;5.270;2022-12-26T13:14:32;101466.72;;;5.57;100.00
47054;BME280;32811;52.382;5.270;2022-12-26T13:17:16;101492.00;;;5.72;100.00
47054;BME280;32811;52.382;5.270;2022-12-26T13:19:53;101508.22;;;5.73;100.00
47054;BME280;32811;52.382;5.270;2022-12-26T13:22:41;101512.09;;;5.61;100.00
47054;BME280;32811;52.382;5.270;2022-12-26T13:25:33;101482.44;;;5.43;100.00
47054;BME280;32811;52.382;5.270;2022-12-26T13:28:05;101514.19;;;5.48;100.00
47054;BME280;32811;52.382;5.270;2022-12-26T13:30:36;101512.97;;;5.38;100.00
47054;BME280;32811;52.382;5.270;2022-12-26T13:33:04;101500.56;;;5.25;100.00
47054;BME280;32811;52.382;5.270;2022-12-26T13:35:54;101527.44;;;5.37;100.00
47054;BME280;32811;52.382;5.270;2022-12-26T13:38:23;101487.63;;;5.22;100.00
47054;BME280;32811;52.382;5.270;2022-12-26T13:40:56;101498.81;;;5.24;100.00
47054;BME280;32811;52.382;5.270;2022-12-26T13:51:58;101536.84;;;5.37;100.00
47054;BME280;32811;52.382;5.270;2022-12-26T13:54:27;101544.34;;;5.32;100.00
47054;BME280;32811;52.382;5.270;2022-12-26T14:00:09;101512.19;;;4.94;100.00
47054;BME280;32811;52.382;5.270;2022-12-26T14:17:07;101562.06;;;4.83;100.00
47054;BME280;32811;52.382;5.270;2022-12-26T14:19:54;101567.97;;;4.82;100.00
47054;BME280;32811;52.382;5.270;2022-12-26T14:35:34;101586.06;;;4.44;100.00
47054;BME280;32811;52.382;5.270;2022-12-26T14:41:00;101617.63;;;4.45;100.00
47054;BME280;32811;52.382;5.270;2022-12-26T14:43:37;101596.47;;;4.28;100.00
47054;BME280;32811;52.382;5.270;2022-12-26T14:49:12;101596.00;;;4.17;100.00
47054;BME280;32811;52.382;5.270;2022-12-26T14:51:43;101596.44;;;4.07;100.00
47054;BME280;32811;52.382;5.270;2022-12-26T14:56:42;101601.69;;;4.10;100.00
47054;BME280;32811;52.382;5.270;2022-12-26T14:59:31;101628.25;;;4.13;100.00
47054;BME280;32811;52.382;5.270;2022-12-26T15:02:10;101598.88;;;3.84;100.00
47054;BME280;32811;52.382;5.270;2022-12-26T15:10:34;101635.69;;;3.89;100.00
47054;BME280;32811;52.382;5.270;2022-12-26T15:33:22;101655.59;;;4.16;100.00
47054;BME280;32811;52.382;5.270;2022-12-26T15:47:48;101675.75;;;3.90;100.00
47054;BME280;32811;52.382;5.270;2022-12-26T15:53:24;101678.84;;;3.83;100.00
47054;BME280;32811;52.382;5.270;2022-12-26T15:56:09;101644.59;;;3.60;100.00
47054;BME280;32811;52.382;5.270;2022-12-26T15:58:51;101690.81;;;3.84;100.00
47054;BME280;32811;52.382;5.270;2022-12-26T16:01:38;101689.50;;;3.74;100.00
47054;BME280;32811;52.382;5.270;2022-12-26T16:04:11;101605.06;;;3.15;100.00
47054;BME280;32811;52.382;5.270;2022-12-26T16:06:56;101686.81;;;3.71;100.00
47054;BME280;32811;52.382;5.270;2022-12-26T16:09:46;101702.63;;;3.82;100.00
47054;BME280;32811;52.382;5.270;2022-12-26T16:12:20;101690.00;;;3.85;100.00
47054;BME280;32811;52.382;5.270;2022-12-26T16:14:47;101697.22;;;3.76;100.00
47054;BME280;32811;52.382;5.270;2022-12-26T16:19:44;101662.50;;;3.42;100.00
47054;BME280;32811;52.382;5.270;2022-12-26T16:27:39;101695.97;;;3.48;100.00
47054;BME280;32811;52.382;5.270;2022-12-26T16:30:15;101711.78;;;3.41;100.00
47054;BME280;32811;52.382;5.270;2022-12-26T16:32:44;101707.19;;;3.34;100.00
47054;BME280;32811;52.382;5.270;2022-12-26T16:35:18;101713.09;;;3.33;100.00
47054;BME280;32811;52.382;5.270;2022-12-26T16:37:46;101710.25;;;3.27;100.00
47054;BME280;32811;52.382;5.270;2022-12-26T16:40:18;101677.63;;;3.03;100.00
47054;BME280;32811;52.382;5.270;2022-12-26T16:43:36;101705.91;;;3.08;100.00
47054;BME280;32811;52.382;5.270;2022-12-26T16:45:49;101719.63;;;3.10;100.00
47054;BME280;32811;52.382;5.270;2022-12-26T16:48:19;101709.69;;;2.98;100.00
47054;BME280;32811;52.382;5.270;2022-12-26T16:50:51;101700.00;;;2.91;100.00
47054;BME280;32811;52.382;5.270;2022-12-26T16:53:21;101706.84;;;2.92;100.00
47054;BME280;32811;52.382;5.270;2022-12-26T16:56:31;101717.34;;;2.98;100.00
47054;BME280;32811;52.382;5.270;2022-12-26T16:59:11;101739.66;;;3.02;100.00
47054;BME280;32811;52.382;5.270;2022-12-26T17:01:53;101732.28;;;2.90;100.00
47054;BME280;32811;52.382;5.270;2022-12-26T17:04:26;101741.81;;;2.95;100.00
47054;BME280;32811;52.382;5.270;2022-12-26T17:07:03;101704.19;;;2.73;100.00